Carlinville, IL

1:35 AM CST on February 25, 2018 (GMT -0600)
Carlinville Sumner Street | | Change Station

Elev 500 ft 39.29 °N, 89.88 °W | Updated 3 seconds ago

Overcast
Overcast
37.2 °F
Feels Like 33 °F
N
5.0
Wind Variable Wind from West
Gusts 19.0 mph

Today
High -- | Low -- °F
--% Chance of Precip.
Yesterday
High -- | Low -- °F
Precip. -- in
Pressure 29.86 in
Visibility 10.0 miles
Clouds Overcast 2200 ft
Windchill 33 °F
Dew Point 31 °F
Humidity 78%
Rainfall 0.00 in
Snow Depth Not available.
6:37 AM 5:47 PM
Waxing Gibbous, 72% visible
METAR K3LF 250715Z AUTO 26023G28KT 10SM OVC022 03/00 A2986 RMK AO2 T00310001
Pressure 29.86 in
Visibility 10.0 miles
Clouds Overcast 2200 ft
Windchill 33 °F
Dew Point 31 °F
Humidity 78%
Rainfall 0.00 in
Snow Depth Not available.
6:37 AM 5:47 PM
Waxing Gibbous, 72% visible
METAR K3LF 250715Z AUTO 26023G28KT 10SM OVC022 03/00 A2986 RMK AO2 T00310001

Get Severe Weather Alerts

Thanks for signing up!

Be on the lookout for a verification email in your inbox.

You'll start receiving the daily forecast at 6 AM.

×

10-Day Weather Forecast

Almanac

Astronomy

Feb. 25, 2018 Rise Set
Actual Time
Civil Twilight
Nautical Twilight
Astronomical Twilight
Moon
Length of Visible Light
Length of Day
Tomorrow will be .
, % of the Moon is Illuminated

Today's Extremes

State Highs State Lows

Community

WunderPhotos

Category 6

Welcome to Category 6. This is the collective home for Weather Underground's featured writeups by Dr. Jeff Masters (right), Bob Henson (left), Chris Burt, and other regular contributors.

Nearby

Air Quality

  Air Quality AQ Index Pollutant
Not available.

Snow Depth

Station Depth Elevation

Earthquake Activity

City Distance Mag. Time & Date
Minimum magnitude displayed is 2.5.

Coastal Water Temperatures

Place Temperature

Stations

Nearby Weather Stations

Station Location Temp. Windchill Dew Point Humidity Wind Precip. Elev Updated Type
                   

Watches & Warnings

There are currently no watches in effect.